Search for airport 
image banner adimage banner adimage banner ad
image banner ad

KRNO - Reno/Tahoe Intl

Located in Reno, United States

ICAO - RNO, IATA - RNO

Data provided by Airmate  

General information

Coordinates: N39°29'57" W119°46'5"
Elevation is 4415 feet MSL.
Magnetic variation is 16° East
View others Airports in Nevada

Operational data

Special qualification required
Current time UTC:
Current local time:
Weather
METAR: KRNO 131055Z 24003KT 10SM CLR 17/06 A3000 RMK AO2 SLP101 T01670056
TAF: KRNO 130530Z 1306/1406 VRB04KT P6SM SKC FM131800 21009KT P6SM SKC FM132100 23011G20KT P6SM FEW080 FM132300 26019G27KT P6SM FEW100 FM140300 29011KT P6SM FEW250
View NOTAMs / SUP AIP / TFR affecting this airport [VIEW]
Communications frequencies: [VIEW]

Runways:

RWY identifierQFULength (ft)Width (ft)SurfaceLDA (ft)
0790°6102150CONC5854
25270°6102150CONC6102
16R180°11001150CONC10001
34L11001150CONC10011
16L180°9000150CONC9000
34R9000150CONC9000

Airport contact information

Address: Reno United States

Other aviation service providers

Flight schools

Reno Flying Service, Inc.

Reno Flying Service, Inc.

Flying Start Aero, Llc.

Flying Start Aero, Llc.

Vast Aviation

Vast Aviation
earl@vastaviation.com+1(775)530-6446

Satellite view of KRNO